Arcola, Indiana
Current Conditions -  °F | °C
As of 5:54 PM on Tuesday 27 Jan 2015 (Local Time) from KFWA Reporting Station
Few Clouds Few Clouds  
Wind Chill: -10°   Ceiling: Unl
Heat Index: -6°   Visibility: 10mi
Dew Point: -12°   Wind: 6mph
Humidity: 63%   Direction: 330°NNW
Pressure: 30.18"   Gusts: NA
Location:  41.1°N, 85.29°W
Report Text: KFWA 272254Z 33005KT 10SM FEW250 M06/M12 A3018 RMK AO2 SLP233 T10561117
Loading
Personal Weather Stations






























Interactive Weather Map New forecast layout! Learn more

10-Day Weather Forecast

Advertisements
Track Severe Weather on mobile